Time;durP1;ratioP1;P1;durP2;ratioP2;P2;SDS_P1;SDS_P2;PMS_P1;PMS_P2;Temp;Humidity;BMP_temperature;BMP_pressure;BME280_temperature;BME280_humidity;BME280_pressure;Samples;Min_cycle;Max_cycle;Signal;HPM_P1;HPM_P2
2023/08/15 00:00:38;;;;;;;8.05;5.32;;;;;;;-143.21;45.68;71306.81;5066891;28;20683;-77
2023/08/15 00:03:05;;;;;;;9.90;5.80;;;;;;;-143.21;45.42;71306.81;5063042;28;20206;-78
2023/08/15 00:05:32;;;;;;;10.25;5.82;;;;;;;-143.21;45.22;71310.78;5063256;28;20224;-78
2023/08/15 00:07:59;;;;;;;13.00;5.45;;;;;;;-143.21;44.93;71314.75;5070054;28;20209;-78
2023/08/15 00:10:26;;;;;;;6.78;5.25;;;;;;;-143.21;45.30;71314.75;5063239;28;20205;-76
2023/08/15 00:12:54;;;;;;;9.60;5.53;;;;;;;-143.21;44.90;71312.78;5063328;28;20216;-76
2023/08/15 00:15:20;;;;;;;6.82;5.22;;;;;;;-143.21;45.16;71314.75;5066468;28;20206;-77
2023/08/15 00:17:47;;;;;;;10.73;5.50;;;;;;;-143.21;44.96;71285.03;5063417;28;20228;-78
2023/08/15 00:20:14;;;;;;;7.30;5.72;;;;;;;-143.21;44.67;71265.19;5064777;28;20205;-77
2023/08/15 00:22:41;;;;;;;10.70;5.70;;;;;;;-143.21;43.86;71247.34;5069144;28;20226;-77
2023/08/15 00:25:08;;;;;;;6.45;5.00;;;;;;;-143.21;44.14;71239.41;5065158;28;20221;-78
2023/08/15 00:27:35;;;;;;;10.32;5.47;;;;;;;-143.21;43.90;71239.41;5067308;28;20201;-78
2023/08/15 00:30:04;;;;;;;9.32;5.38;;;;;;;-143.21;44.25;71239.41;5066283;28;20213;-77
2023/08/15 00:32:35;;;;;;;6.85;5.45;;;;;;;-143.21;43.98;71241.41;5062847;28;20202;-78
2023/08/15 00:35:03;;;;;;;8.60;5.70;;;;;;;-143.21;44.55;71239.41;5067017;28;20209;-79
2023/08/15 00:37:30;;;;;;;8.05;5.50;;;;;;;-143.21;44.18;71241.41;5061921;28;20214;-79
2023/08/15 00:39:57;;;;;;;11.13;6.07;;;;;;;-143.21;44.18;71241.41;5056406;28;20202;-77
2023/08/15 00:42:23;;;;;;;10.13;5.88;;;;;;;-143.21;44.40;71245.38;5062432;28;20217;-77
2023/08/15 00:44:50;;;;;;;7.85;5.20;;;;;;;-143.21;44.23;71237.44;5065761;28;20206;-78
2023/08/15 00:47:20;;;;;;;10.95;5.50;;;;;;;-143.21;44.62;71239.41;5068851;28;20244;-78
2023/08/15 00:49:47;;;;;;;7.57;5.47;;;;;;;-143.21;44.64;71249.34;5066949;28;20210;-77
2023/08/15 00:52:16;;;;;;;8.57;5.60;;;;;;;-143.21;44.73;71251.31;5067315;28;20197;-78
2023/08/15 00:54:46;;;;;;;9.57;5.65;;;;;;;-143.21;44.61;71255.28;5066778;28;20233;-78
2023/08/15 00:57:14;;;;;;;7.50;5.70;;;;;;;-143.21;45.36;71257.25;5062703;28;20209;-78
2023/08/15 00:59:43;;;;;;;10.38;5.50;;;;;;;-143.21;44.91;71257.25;5063440;28;20212;-78
2023/08/15 01:02:10;;;;;;;10.13;5.30;;;;;;;-143.21;44.69;71267.19;5067377;28;20225;-78
2023/08/15 01:04:39;;;;;;;10.02;5.72;;;;;;;-143.21;45.25;71279.06;5067332;28;20216;-78
2023/08/15 01:07:06;;;;;;;8.30;5.70;;;;;;;-143.21;45.38;71300.88;5059446;28;20555;-78
2023/08/15 01:09:33;;;;;;;10.35;5.53;;;;;;;-143.21;45.59;71290.97;5068283;28;20589;-78
2023/08/15 01:12:12;;;;;;;8.13;6.00;;;;;;;-143.21;45.65;71300.88;5062246;28;20209;-78
2023/08/15 01:14:46;;;;;;;7.22;5.60;;;;;;;-143.21;45.92;71306.81;5063296;28;20965;-78
2023/08/15 01:17:18;;;;;;;7.00;5.57;;;;;;;-143.21;45.95;71312.78;5057601;28;20190;-77
2023/08/15 01:19:50;;;;;;;8.57;6.00;;;;;;;-143.21;46.11;71310.78;5065219;28;20201;-77
2023/08/15 01:22:21;;;;;;;9.50;5.70;;;;;;;-143.21;46.32;71324.66;5066741;28;20234;-77
2023/08/15 01:24:50;;;;;;;10.30;5.80;;;;;;;-143.21;46.54;71324.66;5065618;28;20250;-77
2023/08/15 01:27:17;;;;;;;10.25;6.03;;;;;;;-143.21;46.45;71322.69;5064440;28;20256;-76
2023/08/15 01:29:44;;;;;;;12.50;6.30;;;;;;;-143.21;46.53;71324.66;5068500;28;20201;-77
2023/08/15 01:32:17;;;;;;;12.75;5.70;;;;;;;-143.21;46.46;71328.63;5067480;28;20753;-77
2023/08/15 01:34:51;;;;;;;10.38;5.72;;;;;;;-143.21;46.61;71332.59;5069294;28;20197;-83
2023/08/15 01:37:24;;;;;;;7.20;5.60;;;;;;;-143.21;46.55;71332.59;5063892;28;20201;-83
2023/08/15 01:39:55;;;;;;;13.82;5.50;;;;;;;-143.21;46.53;71318.72;5061825;28;20205;-83
2023/08/15 01:42:24;;;;;;;7.97;5.35;;;;;;;-143.21;45.92;71285.03;5059492;28;20324;-82
2023/08/15 01:44:52;;;;;;;8.93;5.93;;;;;;;-143.21;45.22;71267.19;5058550;28;20228;-82
2023/08/15 01:47:21;;;;;;;10.27;5.82;;;;;;;-143.21;45.00;71249.34;5063469;28;20297;-82
2023/08/15 01:49:47;;;;;;;6.10;5.18;;;;;;;-143.21;45.10;71249.34;5058391;28;20224;-82
2023/08/15 01:52:14;;;;;;;7.85;5.15;;;;;;;-143.21;45.17;71249.34;5054881;28;20201;-82
2023/08/15 01:54:41;;;;;;;10.50;5.78;;;;;;;-143.21;45.48;71249.34;5062982;28;20229;-82
2023/08/15 01:57:09;;;;;;;9.45;5.70;;;;;;;-143.21;45.09;71241.41;5065736;28;20682;-77
2023/08/15 01:59:36;;;;;;;9.15;5.72;;;;;;;-143.21;44.99;71257.25;5065532;28;20206;-78
2023/08/15 02:02:06;;;;;;;8.05;5.80;;;;;;;-143.21;45.24;71263.22;5060377;28;20738;-78
2023/08/15 02:04:32;;;;;;;13.45;5.68;;;;;;;-143.21;45.44;71267.19;5057136;28;20209;-77
2023/08/15 02:06:59;;;;;;;9.65;5.40;;;;;;;-143.21;45.43;71275.09;5061330;28;20197;-77
2023/08/15 02:09:27;;;;;;;9.20;5.30;;;;;;;-143.21;45.32;71279.06;5067696;28;20205;-77
2023/08/15 02:11:54;;;;;;;8.88;5.63;;;;;;;-143.21;45.21;71283.03;5064698;28;20201;-77
2023/08/15 02:14:22;;;;;;;11.43;5.50;;;;;;;-143.21;45.67;71287.00;5065793;28;20220;-77
2023/08/15 02:16:49;;;;;;;7.60;5.25;;;;;;;-143.21;45.52;71294.94;5066105;28;20272;-76
2023/08/15 02:19:16;;;;;;;8.10;5.65;;;;;;;-143.21;45.15;71292.94;5062316;28;20876;-77
2023/08/15 02:21:42;;;;;;;8.43;5.32;;;;;;;-143.21;45.58;71300.88;5065411;28;20201;-78
2023/08/15 02:24:09;;;;;;;10.70;5.70;;;;;;;-143.21;45.64;71296.91;5065886;28;20201;-77
2023/08/15 02:26:36;;;;;;;11.93;5.60;;;;;;;-143.21;45.66;71296.91;5065033;28;20204;-77
2023/08/15 02:29:04;;;;;;;7.53;5.68;;;;;;;-143.21;45.96;71300.88;5065318;28;20291;-77
2023/08/15 02:31:32;;;;;;;10.70;5.65;;;;;;;-143.21;45.33;71279.06;5062469;28;20267;-76
2023/08/15 02:33:59;;;;;;;7.15;5.97;;;;;;;-143.21;45.77;71273.13;5063545;28;20632;-76
2023/08/15 02:36:26;;;;;;;7.35;5.43;;;;;;;-143.21;45.28;71263.22;5061833;28;20205;-76
2023/08/15 02:38:53;;;;;;;10.43;5.40;;;;;;;-143.21;45.36;71271.13;5061078;28;20228;-76
2023/08/15 02:41:21;;;;;;;9.45;5.55;;;;;;;-143.21;45.54;71277.09;5064958;28;20221;-76
2023/08/15 02:43:48;;;;;;;6.70;5.70;;;;;;;-143.21;45.13;71277.09;5058890;28;20291;-76
2023/08/15 02:46:16;;;;;;;10.13;5.82;;;;;;;-143.21;45.43;71287.00;5064480;28;20208;-76
2023/08/15 02:48:44;;;;;;;7.40;5.57;;;;;;;-143.21;45.81;71296.91;5061569;28;20290;-76
2023/08/15 02:51:11;;;;;;;8.18;5.50;;;;;;;-143.21;45.87;71310.78;5060981;28;20563;-76
2023/08/15 02:53:37;;;;;;;10.80;5.80;;;;;;;-143.21;46.16;71312.78;5058848;28;20226;-76
2023/08/15 02:56:05;;;;;;;9.07;6.32;;;;;;;-143.21;46.41;71320.69;5061589;28;20209;-77
2023/08/15 02:58:33;;;;;;;9.85;6.32;;;;;;;-143.21;46.74;71328.63;5060075;28;20209;-77
2023/08/15 03:00:59;;;;;;;12.82;5.80;;;;;;;-143.21;46.81;71332.59;5058539;28;20241;-77
2023/08/15 03:03:26;;;;;;;10.55;5.57;;;;;;;-143.21;46.98;71340.53;5064341;28;20228;-78
2023/08/15 03:05:54;;;;;;;9.27;6.10;;;;;;;-143.21;47.08;71338.53;5062029;28;20707;-77
2023/08/15 03:08:21;;;;;;;10.90;6.13;;;;;;;-143.21;46.90;71338.53;5064497;28;20210;-77
2023/08/15 03:10:50;;;;;;;8.80;6.00;;;;;;;-143.21;47.05;71340.53;5057869;28;20646;-82
2023/08/15 03:13:17;;;;;;;8.00;5.80;;;;;;;-143.21;47.51;71348.47;5053577;28;20209;-82
2023/08/15 03:15:52;;;;;;;6.97;5.43;;;;;;;-143.21;47.76;71358.38;5056637;28;20240;-82
2023/08/15 03:18:19;;;;;;;7.32;5.80;;;;;;;-143.21;47.40;71356.38;5062782;28;20296;-81
2023/08/15 03:20:57;;;;;;;8.60;5.50;;;;;;;-143.21;47.36;71362.34;5057207;28;20213;-82
2023/08/15 03:23:24;;;;;;;6.30;5.35;;;;;;;-143.21;47.58;71368.28;5060579;28;20236;-82
2023/08/15 03:25:57;;;;;;;10.07;5.50;;;;;;;-143.21;47.11;71350.44;5063413;28;20683;-81
2023/08/15 03:28:24;;;;;;;13.57;5.38;;;;;;;-143.21;46.58;71332.59;5059402;28;20258;-82
2023/08/15 03:30:51;;;;;;;7.70;5.65;;;;;;;-143.21;47.19;71322.69;5049995;28;20577;-82
2023/08/15 03:33:19;;;;;;;7.65;5.53;;;;;;;-143.21;46.76;71324.66;5053309;28;20272;-81
2023/08/15 03:35:46;;;;;;;9.05;5.20;;;;;;;-143.21;46.73;71326.66;5062555;28;20225;-81
2023/08/15 03:38:16;;;;;;;8.80;5.38;;;;;;;-143.21;46.86;71344.50;5052274;28;20217;-83
2023/08/15 03:40:43;;;;;;;9.45;5.57;;;;;;;-143.21;47.18;71368.28;5058384;28;20240;-76
2023/08/15 03:43:11;;;;;;;9.85;5.50;;;;;;;-143.21;47.29;71360.34;5063681;28;20229;-78
2023/08/15 03:45:38;;;;;;;6.78;5.20;;;;;;;-143.21;47.03;71362.34;5059998;28;20202;-78
2023/08/15 03:48:10;;;;;;;11.15;5.70;;;;;;;-143.21;47.24;71364.31;5060324;28;20714;-80
2023/08/15 03:50:38;;;;;;;9.40;5.30;;;;;;;-143.21;47.28;71364.31;5062777;28;21087;-79
2023/08/15 03:53:05;;;;;;;8.82;5.53;;;;;;;-143.21;47.37;71362.34;5065004;28;20233;-79
2023/08/15 03:55:35;;;;;;;9.48;5.82;;;;;;;-143.21;47.16;71364.31;5061373;28;20658;-79
2023/08/15 03:58:02;;;;;;;9.60;5.53;;;;;;;-143.21;47.21;71366.31;5056709;28;20201;-77
2023/08/15 04:00:29;;;;;;;10.02;5.55;;;;;;;-143.21;47.35;71358.38;5054312;28;20921;-77
2023/08/15 04:02:56;;;;;;;9.20;5.25;;;;;;;-143.21;47.05;71342.50;5060148;28;20228;-78
2023/08/15 04:05:24;;;;;;;8.98;6.13;;;;;;;-143.21;47.34;71332.59;5055863;28;20259;-78
2023/08/15 04:07:50;;;;;;;8.77;5.53;;;;;;;-143.21;46.57;71318.72;5063754;28;20845;-78
2023/08/15 04:10:17;;;;;;;8.20;5.60;;;;;;;-143.21;46.65;71326.66;5063283;28;20509;-76
2023/08/15 04:12:46;;;;;;;7.88;5.30;;;;;;;-143.21;46.66;71338.53;5062604;28;20670;-75
2023/08/15 04:15:13;;;;;;;8.63;5.50;;;;;;;-143.21;46.89;71346.47;5058171;28;20201;-76
2023/08/15 04:17:40;;;;;;;11.45;5.30;;;;;;;-143.21;47.42;71354.41;5052100;28;20205;-76
2023/08/15 04:20:09;;;;;;;9.73;6.00;;;;;;;-143.21;46.89;71358.38;5053120;28;20212;-76
2023/08/15 04:22:36;;;;;;;10.70;5.85;;;;;;;-143.21;47.12;71354.41;5056925;28;20592;-76
2023/08/15 04:25:03;;;;;;;9.20;5.78;;;;;;;-143.21;47.02;71352.44;5063338;28;20197;-76
2023/08/15 04:27:30;;;;;;;8.80;5.40;;;;;;;-143.21;47.37;71352.44;5062420;28;20225;-77
2023/08/15 04:29:59;;;;;;;7.82;5.65;;;;;;;-143.21;46.57;71340.53;5064473;28;20571;-77
2023/08/15 04:32:25;;;;;;;8.77;5.95;;;;;;;-143.21;47.12;71348.47;5064190;28;20201;-76
2023/08/15 04:34:52;;;;;;;14.40;6.35;;;;;;;-143.21;46.46;71324.66;5063430;28;20209;-76
2023/08/15 04:37:19;;;;;;;14.52;5.90;;;;;;;-143.21;46.69;71320.69;5057913;28;20225;-76
2023/08/15 04:39:46;;;;;;;10.80;5.80;;;;;;;-143.21;46.66;71330.63;5062338;28;20213;-76
2023/08/15 04:42:13;;;;;;;8.50;5.65;;;;;;;-143.21;46.34;71326.66;5066640;28;20255;-76
2023/08/15 04:44:40;;;;;;;10.43;6.03;;;;;;;-143.21;46.17;71338.53;5066049;28;20318;-76
2023/08/15 04:47:09;;;;;;;17.52;5.72;;;;;;;-143.21;46.27;71352.44;5062678;28;20258;-77
2023/08/15 04:49:35;;;;;;;10.50;5.95;;;;;;;-143.21;46.35;71356.38;5066634;28;20658;-76
2023/08/15 04:52:02;;;;;;;11.48;6.30;;;;;;;-143.21;46.66;71354.41;5061650;28;20209;-75
2023/08/15 04:54:29;;;;;;;10.60;6.05;;;;;;;-143.21;47.03;71350.44;5062889;28;20231;-76
2023/08/15 04:56:56;;;;;;;9.93;6.13;;;;;;;-143.21;46.91;71352.44;5060595;28;20656;-75
2023/08/15 04:59:23;;;;;;;8.48;5.72;;;;;;;-143.21;46.64;71356.38;5065686;28;20215;-76
2023/08/15 05:01:50;;;;;;;13.38;5.82;;;;;;;-143.21;47.00;71348.47;5064903;28;20209;-76
2023/08/15 05:04:18;;;;;;;10.00;5.75;;;;;;;-143.21;46.88;71346.47;5063831;28;20234;-76
2023/08/15 05:06:45;;;;;;;14.15;5.85;;;;;;;-143.21;46.84;71352.44;5065074;28;20212;-76
2023/08/15 05:09:12;;;;;;;9.23;5.78;;;;;;;-143.21;47.03;71350.44;5054547;28;20203;-76
2023/08/15 05:11:39;;;;;;;8.68;5.47;;;;;;;-143.21;47.06;71356.38;5065980;28;20217;-76
2023/08/15 05:14:06;;;;;;;8.30;6.05;;;;;;;-143.21;47.45;71344.50;5060841;28;20594;-76
2023/08/15 05:16:33;;;;;;;9.57;5.78;;;;;;;-143.21;47.20;71332.59;5063352;28;20269;-76
2023/08/15 05:19:00;;;;;;;12.35;5.53;;;;;;;-143.21;46.79;71340.53;5059602;28;20654;-76
2023/08/15 05:21:29;;;;;;;11.77;5.85;;;;;;;-143.21;46.85;71340.53;5066796;28;20217;-76
2023/08/15 05:23:56;;;;;;;11.00;5.90;;;;;;;-143.21;47.10;71344.50;5058633;28;20221;-76
2023/08/15 05:26:23;;;;;;;10.82;6.10;;;;;;;-143.21;47.48;71358.38;5062537;28;20205;-76
2023/08/15 05:28:49;;;;;;;11.93;5.63;;;;;;;-143.21;47.78;71352.44;5059546;28;20206;-76
2023/08/15 05:31:16;;;;;;;15.77;6.03;;;;;;;-143.21;47.91;71362.34;5065326;28;20271;-76
2023/08/15 05:33:43;;;;;;;9.05;5.78;;;;;;;-143.21;47.98;71352.44;5064418;28;20190;-76
2023/08/15 05:36:10;;;;;;;8.75;5.35;;;;;;;-143.21;47.92;71358.38;5062152;28;20267;-75
2023/08/15 05:38:38;;;;;;;9.45;5.47;;;;;;;-143.21;48.39;71368.28;5064577;28;20208;-75
2023/08/15 05:41:05;;;;;;;10.00;5.65;;;;;;;-143.21;48.74;71358.38;5058352;28;20205;-76
2023/08/15 05:43:31;;;;;;;11.15;5.78;;;;;;;-143.21;48.85;71352.44;5061614;28;20217;-75
2023/08/15 05:45:59;;;;;;;12.93;5.75;;;;;;;-143.21;48.55;71354.41;5059332;28;20201;-76
2023/08/15 05:48:26;;;;;;;16.00;5.80;;;;;;;-143.21;48.76;71360.34;5064921;28;20198;-75
2023/08/15 05:50:53;;;;;;;8.23;5.70;;;;;;;-143.21;48.73;71366.31;5060672;28;20197;-76
2023/08/15 05:53:20;;;;;;;12.75;5.47;;;;;;;-143.21;49.29;71376.22;5062945;28;20279;-76
2023/08/15 05:55:48;;;;;;;10.85;5.97;;;;;;;-143.21;49.04;71384.16;5061220;28;20316;-75
2023/08/15 05:58:15;;;;;;;9.98;6.15;;;;;;;-143.21;49.25;71392.06;5063708;28;21012;-75
2023/08/15 06:00:42;;;;;;;10.07;6.05;;;;;;;-143.21;49.58;71405.94;5065038;28;20675;-76
2023/08/15 06:03:08;;;;;;;12.25;6.25;;;;;;;-143.21;49.85;71402.00;5064960;28;20282;-76
2023/08/15 06:05:35;;;;;;;10.35;6.63;;;;;;;-143.21;50.28;71409.91;5058812;28;20208;-76
2023/08/15 06:08:02;;;;;;;9.23;5.95;;;;;;;-143.21;50.07;71380.19;5060713;28;20567;-75
2023/08/15 06:10:29;;;;;;;12.25;5.78;;;;;;;-143.21;49.83;71362.34;5059558;28;20198;-75
2023/08/15 06:12:57;;;;;;;9.63;6.40;;;;;;;-143.21;49.76;71378.19;5061610;28;20211;-75
2023/08/15 06:15:24;;;;;;;11.27;6.18;;;;;;;-143.21;50.03;71382.16;5059480;28;20212;-76
2023/08/15 06:17:51;;;;;;;9.02;5.82;;;;;;;-143.21;50.22;71382.16;5061434;28;20208;-75
2023/08/15 06:20:18;;;;;;;12.95;5.70;;;;;;;-143.21;50.28;71382.16;5064327;28;20213;-77
2023/08/15 06:22:45;;;;;;;12.80;6.53;;;;;;;-143.21;50.31;71390.09;5053726;28;20206;-76
2023/08/15 06:25:12;;;;;;;8.25;6.07;;;;;;;-143.21;50.39;71396.03;5062510;28;20223;-76
2023/08/15 06:27:38;;;;;;;10.18;6.57;;;;;;;-143.21;51.49;71398.03;5064375;28;20212;-76
2023/08/15 06:30:08;;;;;;;9.48;6.65;;;;;;;-143.21;52.09;71403.97;5060790;28;20202;-75
2023/08/15 06:32:35;;;;;;;13.48;6.10;;;;;;;-143.21;52.48;71400.00;5058313;28;20209;-76
2023/08/15 06:35:03;;;;;;;10.35;6.32;;;;;;;-143.21;52.28;71372.25;5063484;28;20209;-75
2023/08/15 06:37:29;;;;;;;11.60;6.72;;;;;;;-143.21;51.41;71372.25;5057059;28;20241;-75
2023/08/15 06:39:56;;;;;;;8.98;6.40;;;;;;;-143.21;51.58;71372.25;5063301;28;20578;-76
2023/08/15 06:42:23;;;;;;;11.23;6.38;;;;;;;-143.21;51.40;71372.25;5061418;28;20209;-76
2023/08/15 06:44:50;;;;;;;10.32;6.45;;;;;;;-143.21;51.68;71376.22;5060253;28;20239;-75
2023/08/15 06:47:19;;;;;;;11.50;5.97;;;;;;;-143.21;51.83;71394.06;5063294;28;20205;-77
2023/08/15 06:49:45;;;;;;;11.00;6.32;;;;;;;-143.21;52.07;71396.03;5056577;28;20259;-77
2023/08/15 06:52:12;;;;;;;8.95;5.70;;;;;;;-143.21;52.53;71405.94;5059807;28;20205;-77
2023/08/15 06:54:39;;;;;;;9.52;6.20;;;;;;;-143.21;52.51;71417.84;5059763;28;20221;-78
2023/08/15 06:57:07;;;;;;;10.77;6.00;;;;;;;-143.21;52.50;71407.94;5055527;28;20599;-77
2023/08/15 06:59:35;;;;;;;10.90;6.32;;;;;;;-143.21;52.47;71402.00;5057417;28;20252;-77
2023/08/15 07:02:02;;;;;;;10.10;6.22;;;;;;;-143.21;52.53;71405.94;5060236;28;20221;-77
2023/08/15 07:04:30;;;;;;;8.75;5.30;;;;;;;-143.21;53.66;71407.94;5055735;28;20222;-76
2023/08/15 07:06:58;;;;;;;11.88;6.60;;;;;;;-143.21;52.82;71402.00;5059817;28;20201;-74
2023/08/15 07:09:28;;;;;;;13.20;6.28;;;;;;;-143.21;52.28;71382.16;5058112;28;20664;-76
2023/08/15 07:11:55;;;;;;;9.30;5.68;;;;;;;-143.21;52.62;71370.28;5060067;28;20229;-76
2023/08/15 07:14:21;;;;;;;14.98;7.07;;;;;;;-143.21;51.80;71354.41;5057755;28;20212;-75
2023/08/15 07:16:49;;;;;;;7.72;4.68;;;;;;;-143.21;52.25;71352.44;5061881;28;20625;-76
2023/08/15 07:19:16;;;;;;;12.02;6.10;;;;;;;-143.21;51.43;71348.47;5057312;28;20286;-75
2023/08/15 07:21:45;;;;;;;10.57;6.70;;;;;;;-143.21;51.71;71352.44;5063631;28;20210;-75
2023/08/15 07:24:12;;;;;;;9.80;6.53;;;;;;;-143.21;51.85;71366.31;5059970;28;20634;-76
2023/08/15 07:26:39;;;;;;;7.82;6.00;;;;;;;-143.21;52.49;71370.28;5062336;28;20204;-76
2023/08/15 07:29:05;;;;;;;11.20;5.57;;;;;;;-143.21;52.72;71372.25;5056184;28;20202;-74
2023/08/15 07:31:32;;;;;;;11.20;6.07;;;;;;;-143.21;52.99;71370.28;5064240;28;20205;-75
2023/08/15 07:33:59;;;;;;;9.90;6.28;;;;;;;-143.21;52.85;71366.31;5062764;28;20206;-74
2023/08/15 07:36:26;;;;;;;15.50;6.32;;;;;;;-143.21;53.38;71368.28;5061516;28;20201;-75
2023/08/15 07:38:54;;;;;;;10.68;5.53;;;;;;;-143.21;54.86;71360.34;5059498;28;20296;-76
2023/08/15 07:41:21;;;;;;;13.02;6.15;;;;;;;-143.21;52.10;71360.34;5060145;28;20850;-76
2023/08/15 07:43:48;;;;;;;14.27;6.72;;;;;;;-143.21;51.96;71364.31;5059734;28;20233;-76
2023/08/15 07:46:15;;;;;;;13.70;5.30;;;;;;;-143.21;55.76;71362.34;5062228;28;20209;-76
2023/08/15 07:48:42;;;;;;;16.80;5.90;;;;;;;-143.21;53.07;71362.34;5060856;28;20209;-76
2023/08/15 07:51:09;;;;;;;13.98;6.00;;;;;;;-143.21;54.10;71348.47;5049143;28;20205;-76
2023/08/15 07:53:36;;;;;;;17.15;5.90;;;;;;;-143.21;52.37;71322.69;5067559;28;20610;-75
2023/08/15 07:56:05;;;;;;;12.95;6.00;;;;;;;-143.21;51.07;71312.78;5067431;28;20248;-75
2023/08/15 07:58:33;;;;;;;10.40;5.32;;;;;;;-143.21;50.75;71302.84;5070356;28;20209;-75
2023/08/15 08:01:00;;;;;;;6.78;5.80;;;;;;;-143.21;50.46;71302.84;5071119;28;20590;-75
2023/08/15 08:03:26;;;;;;;12.02;6.43;;;;;;;-143.21;51.00;71308.81;5071428;28;20698;-75
2023/08/15 08:05:53;;;;;;;12.02;6.03;;;;;;;-143.21;50.88;71316.75;5071441;28;20205;-75
2023/08/15 08:08:20;;;;;;;10.52;5.20;;;;;;;-143.21;51.19;71318.72;5071616;28;20204;-75
2023/08/15 08:10:47;;;;;;;8.13;5.80;;;;;;;-143.21;51.12;71312.78;5056770;28;20206;-76
2023/08/15 08:13:17;;;;;;;8.45;5.40;;;;;;;-143.21;51.12;71320.69;5051521;28;20853;-76
2023/08/15 08:15:44;;;;;;;7.20;5.50;;;;;;;-143.21;51.63;71326.66;5051490;28;21043;-76
2023/08/15 08:18:10;;;;;;;11.35;5.93;;;;;;;-143.21;51.61;71336.56;5051288;28;20230;-76
2023/08/15 08:20:37;;;;;;;10.02;6.22;;;;;;;-143.21;51.70;71354.41;5058132;28;20200;-84
2023/08/15 08:23:04;;;;;;;9.40;6.78;;;;;;;-143.21;53.39;71364.31;5073551;28;20925;-84
2023/08/15 08:25:31;;;;;;;9.52;6.13;;;;;;;-143.21;54.44;71366.31;5073478;28;20218;-82
2023/08/15 08:27:58;;;;;;;8.90;5.60;;;;;;;-143.21;53.94;71366.31;5073087;28;20952;-83
2023/08/15 08:30:27;;;;;;;10.48;6.35;;;;;;;-143.21;54.42;71372.25;5080755;28;20280;-82
2023/08/15 08:32:54;;;;;;;7.13;5.85;;;;;;;-143.21;55.14;71368.28;5064290;28;20202;-83
2023/08/15 08:35:21;;;;;;;10.45;6.90;;;;;;;-143.21;55.88;71378.19;5061309;28;20309;-76
2023/08/15 08:37:48;;;;;;;11.25;7.47;;;;;;;-143.21;54.88;71366.31;5069841;28;20197;-77
2023/08/15 08:40:14;;;;;;;13.88;6.90;;;;;;;-143.21;54.31;71370.28;5070308;28;20244;-76
2023/08/15 08:42:42;;;;;;;11.38;6.53;;;;;;;-143.21;54.27;71368.28;5071227;28;20201;-77
2023/08/15 08:45:10;;;;;;;10.35;6.97;;;;;;;-143.21;53.62;71370.28;5070895;28;20221;-77
2023/08/15 08:47:40;;;;;;;10.18;6.75;;;;;;;-143.21;54.37;71374.22;5070700;28;20198;-77
2023/08/15 08:50:10;;;;;;;17.48;6.88;;;;;;;-143.21;54.72;71370.28;5070116;28;20198;-77
2023/08/15 08:52:42;;;;;;;10.30;6.28;;;;;;;-143.21;55.01;71364.31;5069206;28;20201;-75
2023/08/15 08:55:09;;;;;;;10.63;6.38;;;;;;;-143.21;54.58;71352.44;5070653;28;20208;-76
2023/08/15 08:57:37;;;;;;;8.10;6.72;;;;;;;-143.21;55.08;71342.50;5070563;28;20206;-76
2023/08/15 09:00:09;;;;;;;11.07;6.43;;;;;;;-143.21;54.24;71344.50;5070297;28;20715;-76
2023/08/15 09:02:36;;;;;;;12.23;6.38;;;;;;;-143.21;53.93;71338.53;5069975;28;20274;-76
2023/08/15 09:05:07;;;;;;;9.63;6.72;;;;;;;-143.21;54.21;71330.63;5050898;28;20316;-76
2023/08/15 09:07:35;;;;;;;12.68;6.60;;;;;;;-143.21;54.25;71324.66;5077713;28;20205;-76
2023/08/15 09:10:04;;;;;;;12.20;7.38;;;;;;;-143.21;53.43;71318.72;5051201;28;20685;-76
2023/08/15 09:12:36;;;;;;;13.27;7.30;;;;;;;-143.21;53.49;71318.72;5068179;28;20407;-76
2023/08/15 09:15:05;;;;;;;9.55;7.00;;;;;;;-143.21;53.46;71316.75;5069049;28;20197;-76
2023/08/15 09:17:32;;;;;;;16.15;7.25;;;;;;;-143.21;53.44;71322.69;5069773;28;20663;-76
2023/08/15 09:20:11;;;;;;;14.57;6.53;;;;;;;-143.21;53.96;71320.69;5053755;28;20202;-75
2023/08/15 09:22:39;;;;;;;13.98;6.95;;;;;;;-143.21;54.11;71312.78;5061805;28;20197;-76
2023/08/15 09:25:07;;;;;;;15.45;7.63;;;;;;;-143.21;53.90;71310.78;5053056;28;20283;-77
2023/08/15 09:27:34;;;;;;;14.88;7.70;;;;;;;-143.21;54.33;71302.84;5049916;28;20200;-76
2023/08/15 09:30:09;;;;;;;13.80;7.15;;;;;;;-143.21;54.63;71288.97;5059822;28;20220;-76
2023/08/15 09:32:35;;;;;;;12.63;7.13;;;;;;;-143.21;54.34;71277.09;5070080;28;20200;-77
2023/08/15 09:35:03;;;;;;;18.25;7.65;;;;;;;-143.21;54.07;71271.13;5055016;28;20212;-82
2023/08/15 09:37:31;;;;;;;12.02;6.90;;;;;;;-143.21;53.36;71269.16;5036791;28;20225;-83
2023/08/15 09:39:58;;;;;;;11.73;7.13;;;;;;;-143.21;53.01;71273.13;5074437;28;20216;-83
2023/08/15 09:42:25;;;;;;;12.13;6.70;;;;;;;-143.21;53.06;71277.09;5072412;28;20201;-84
2023/08/15 09:44:53;;;;;;;11.77;7.45;;;;;;;-143.21;53.71;71279.06;5050176;28;20221;-76
2023/08/15 09:47:20;;;;;;;14.43;7.63;;;;;;;-143.21;54.80;71269.16;5050116;28;20189;-76
2023/08/15 09:49:48;;;;;;;10.07;6.80;;;;;;;-143.21;55.09;71257.25;5062276;28;20258;-76
2023/08/15 09:52:16;;;;;;;12.48;7.13;;;;;;;-143.21;54.75;71241.41;5068002;28;20201;-75
2023/08/15 09:54:45;;;;;;;15.98;6.97;;;;;;;-143.21;54.43;71233.47;5069563;28;20237;-77
2023/08/15 09:57:12;;;;;;;11.70;6.53;;;;;;;-143.21;53.88;71225.53;5069913;28;20200;-75
2023/08/15 09:59:42;;;;;;;13.88;6.88;;;;;;;-143.21;53.43;71217.59;5069598;28;20204;-76
2023/08/15 10:02:20;;;;;;;11.65;6.78;;;;;;;-143.21;53.48;71203.72;5069939;28;20197;-76
2023/08/15 10:04:52;;;;;;;11.15;6.85;;;;;;;-143.21;53.01;71197.78;5069397;28;20224;-76
2023/08/15 10:07:21;;;;;;;16.17;7.65;;;;;;;-143.21;53.02;71193.81;5069436;28;20186;-78
2023/08/15 10:09:51;;;;;;;16.40;7.85;;;;;;;-143.21;52.74;71172.00;5069440;28;20247;-76
2023/08/15 10:12:19;;;;;;;10.68;6.47;;;;;;;-143.21;50.26;71175.97;5069524;28;20652;-76
2023/08/15 10:14:47;;;;;;;8.75;6.25;;;;;;;-143.21;51.55;71175.97;5069302;28;20210;-76
2023/08/15 10:17:14;;;;;;;13.82;5.88;;;;;;;-143.21;51.36;71179.94;5068996;28;20197;-76
2023/08/15 10:19:46;;;;;;;139.73;9.23;;;;;;;-143.21;52.46;71160.13;5069447;28;20209;-76
2023/08/15 10:22:18;;;;;;;10.02;5.57;;;;;;;-143.21;49.55;71160.13;5068824;28;20202;-76
2023/08/15 10:24:45;;;;;;;10.60;6.03;;;;;;;-143.21;49.58;71166.06;5069683;28;20306;-76
2023/08/15 10:27:14;;;;;;;6.90;5.47;;;;;;;-143.21;49.30;71174.00;5069488;28;20197;-76
2023/08/15 10:29:55;;;;;;;10.02;5.70;;;;;;;-143.21;49.05;71170.03;5068916;28;20699;-76
2023/08/15 10:32:26;;;;;;;8.73;5.90;;;;;;;-143.21;48.97;71174.00;5068832;28;20207;-77
2023/08/15 10:34:54;;;;;;;9.38;5.63;;;;;;;-143.21;48.58;71174.00;5069564;28;20288;-81
2023/08/15 10:37:29;;;;;;;11.38;6.03;;;;;;;-143.21;49.02;71168.06;5071589;28;20288;-82
2023/08/15 10:40:10;;;;;;;10.10;6.20;;;;;;;-143.21;48.97;71164.09;5071521;28;20290;-82
2023/08/15 10:43:11;;;;;;;9.85;5.72;;;;;;;-143.21;48.66;71164.09;5071779;28;20194;-81
2023/08/15 10:45:43;;;;;;;9.27;6.25;;;;;;;-143.21;48.56;71158.13;5071020;28;20217;-82
2023/08/15 10:48:10;;;;;;;10.05;6.18;;;;;;;-143.21;48.26;71156.16;5072066;28;20563;-80
2023/08/15 10:50:44;;;;;;;9.95;5.90;;;;;;;-143.21;48.66;71148.22;5067663;28;20205;-80
2023/08/15 10:53:13;;;;;;;9.45;6.30;;;;;;;-143.21;48.47;71148.22;5052509;28;20241;-80
2023/08/15 10:55:40;;;;;;;9.63;6.28;;;;;;;-143.21;48.71;71144.25;5068924;28;20197;-79
2023/08/15 10:58:10;;;;;;;7.93;5.68;;;;;;;-143.21;48.87;71138.31;5070054;28;20205;-82
2023/08/15 11:00:41;;;;;;;9.90;6.22;;;;;;;-143.21;48.54;71134.34;5069309;28;20274;-78
2023/08/15 11:03:08;;;;;;;9.45;6.35;;;;;;;-143.21;48.50;71126.41;5069087;28;20189;-78
2023/08/15 11:05:35;;;;;;;10.52;6.90;;;;;;;-143.21;48.64;71112.53;5049954;28;20218;-76
2023/08/15 11:08:12;;;;;;;12.77;6.65;;;;;;;-143.21;48.64;71100.66;5047439;28;20198;-76
2023/08/15 11:11:05;;;;;;;8.32;6.22;;;;;;;-143.21;48.50;71114.53;5067130;28;20278;-78
2023/08/15 11:13:36;;;;;;;9.82;6.43;;;;;;;-143.21;48.86;71116.50;5068158;28;20185;-77
2023/08/15 11:16:09;;;;;;;9.45;6.65;;;;;;;-143.21;49.20;71112.53;5068277;28;20185;-77